createdAt,value
2023-04-01T00:00:07.331Z,43.59
2023-04-01T00:02:41.005Z,43.07
2023-04-01T00:05:10.554Z,42.73
2023-04-01T00:07:38.116Z,42.69
2023-04-01T00:10:08.202Z,42.56
2023-04-01T00:12:35.669Z,42.19
2023-04-01T00:15:03.243Z,42.20
2023-04-01T00:17:30.781Z,42.57
2023-04-01T00:19:57.526Z,42.18
2023-04-01T00:22:25.095Z,41.79
2023-04-01T00:24:51.840Z,42.00
2023-04-01T00:27:18.488Z,41.81
2023-04-01T00:29:46.012Z,42.42
2023-04-01T00:32:13.019Z,42.26
2023-04-01T00:34:40.234Z,42.35
2023-04-01T00:37:08.206Z,41.81
2023-04-01T00:39:35.146Z,41.92
2023-04-01T00:42:03.008Z,42.12
2023-04-01T00:44:32.424Z,41.85
2023-04-01T00:47:01.694Z,41.31
2023-04-01T00:49:34.070Z,40.98
2023-04-01T00:52:02.252Z,41.47
2023-04-01T00:54:29.772Z,41.74
2023-04-01T00:56:59.887Z,41.49
2023-04-01T00:59:34.858Z,41.02
2023-04-01T01:02:03.169Z,41.03
2023-04-01T01:04:32.247Z,40.99
2023-04-01T01:07:05.049Z,40.76
2023-04-01T01:09:59.549Z,40.61
2023-04-01T01:12:40.528Z,40.27
2023-04-01T01:15:31.123Z,40.51
2023-04-01T01:18:21.358Z,40.69
2023-04-01T01:21:03.071Z,40.98
2023-04-01T01:23:56.742Z,41.39
2023-04-01T01:27:02.402Z,40.99
2023-04-01T01:30:00.355Z,40.28
2023-04-01T01:32:43.892Z,40.11
2023-04-01T01:35:19.933Z,40.01
2023-04-01T01:37:47.564Z,40.24
2023-04-01T01:40:14.541Z,40.64
2023-04-01T01:42:47.206Z,40.08
2023-04-01T01:45:14.884Z,40.26
2023-04-01T01:47:42.205Z,40.11
2023-04-01T01:50:09.093Z,40.58
2023-04-01T01:52:37.222Z,41.21
2023-04-01T01:55:31.217Z,40.55
2023-04-01T01:58:00.411Z,40.49
2023-04-01T02:00:27.819Z,40.22
2023-04-01T02:02:54.951Z,40.23
2023-04-01T02:05:26.100Z,40.11
2023-04-01T02:08:03.857Z,40.48
2023-04-01T02:10:32.671Z,40.85
2023-04-01T02:13:01.530Z,41.04
2023-04-01T02:15:31.113Z,40.47
2023-04-01T02:18:00.354Z,40.10
2023-04-01T02:20:27.327Z,39.83
2023-04-01T02:22:55.954Z,39.70
2023-04-01T02:25:25.708Z,40.48
2023-04-01T02:27:53.567Z,40.11
2023-04-01T02:30:20.379Z,39.91
2023-04-01T02:32:47.414Z,39.37
2023-04-01T02:35:15.759Z,38.93
2023-04-01T02:37:42.875Z,39.36
2023-04-01T02:40:14.899Z,39.44
2023-04-01T02:42:42.218Z,39.44
2023-04-01T02:45:10.039Z,39.97
2023-04-01T02:47:38.528Z,39.61
2023-04-01T02:50:07.218Z,39.68
2023-04-01T02:52:33.961Z,39.59
2023-04-01T02:55:01.031Z,39.97
2023-04-01T02:57:28.599Z,40.87
2023-04-01T02:59:55.285Z,40.51
2023-04-01T03:02:21.962Z,40.33
2023-04-01T03:04:48.841Z,40.32
2023-04-01T03:07:15.996Z,39.63
2023-04-01T03:09:43.610Z,39.98
2023-04-01T03:12:10.671Z,40.42
2023-04-01T03:14:42.022Z,40.23
2023-04-01T03:17:08.557Z,40.41
2023-04-01T03:19:35.802Z,40.84
2023-04-01T03:22:04.892Z,40.13
2023-04-01T03:24:31.700Z,40.26
2023-04-01T03:27:00.021Z,40.18
2023-04-01T03:29:26.759Z,40.06
2023-04-01T03:31:53.518Z,40.59
2023-04-01T03:34:20.785Z,40.92
2023-04-01T03:36:47.727Z,41.32
2023-04-01T03:39:22.314Z,41.36
2023-04-01T03:41:49.120Z,41.05
2023-04-01T03:44:15.900Z,40.67
2023-04-01T03:46:42.703Z,40.93
2023-04-01T03:49:11.870Z,40.63
2023-04-01T03:51:44.477Z,40.30
2023-04-01T03:54:11.757Z,40.67
2023-04-01T03:56:38.782Z,40.85
2023-04-01T03:59:07.265Z,40.96
2023-04-01T04:01:33.912Z,40.92
2023-04-01T04:04:01.897Z,40.22
2023-04-01T04:06:33.156Z,40.01
2023-04-01T04:09:00.263Z,40.27
2023-04-01T04:11:27.138Z,39.75
2023-04-01T04:13:57.256Z,40.33
2023-04-01T04:16:25.555Z,40.82
2023-04-01T04:18:59.132Z,40.23
2023-04-01T04:21:25.941Z,40.68
2023-04-01T04:23:53.060Z,40.25
2023-04-01T04:26:20.752Z,39.45
2023-04-01T04:28:56.397Z,39.65
2023-04-01T04:31:24.100Z,40.28
2023-04-01T04:33:52.218Z,40.12
2023-04-01T04:36:19.216Z,40.76
2023-04-01T04:38:46.787Z,40.33
2023-04-01T04:41:14.807Z,39.56
2023-04-01T04:43:51.889Z,39.20
2023-04-01T04:46:18.962Z,39.31
2023-04-01T04:48:46.039Z,39.89
2023-04-01T04:51:16.888Z,40.05
2023-04-01T04:53:46.278Z,40.53
2023-04-01T04:56:19.237Z,40.75
2023-04-01T04:58:57.990Z,40.91
2023-04-01T05:01:27.084Z,41.40
2023-04-01T05:03:53.777Z,40.83
2023-04-01T05:06:23.391Z,40.66
2023-04-01T05:08:51.064Z,40.01
2023-04-01T05:11:19.899Z,39.12
2023-04-01T05:13:46.918Z,39.50
2023-04-01T05:16:18.493Z,39.04
2023-04-01T05:18:47.536Z,39.13
2023-04-01T05:21:15.259Z,38.85
2023-04-01T05:23:43.654Z,39.11
2023-04-01T05:26:12.435Z,40.02
2023-04-01T05:28:39.301Z,40.02
2023-04-01T05:31:07.459Z,38.98
2023-04-01T05:33:43.117Z,39.13
2023-04-01T05:36:12.173Z,38.93
2023-04-01T05:38:39.014Z,38.95
2023-04-01T05:41:06.709Z,38.67
2023-04-01T05:43:39.702Z,38.31
2023-04-01T05:46:26.405Z,38.72
2023-04-01T05:48:58.813Z,39.17
2023-04-01T05:51:26.119Z,38.91
2023-04-01T05:53:52.913Z,39.70
2023-04-01T05:56:19.930Z,39.99
2023-04-01T05:58:51.929Z,39.21
2023-04-01T06:01:19.115Z,38.79
2023-04-01T06:03:47.411Z,38.56
2023-04-01T06:06:16.264Z,38.32
2023-04-01T06:08:46.866Z,37.71
2023-04-01T06:11:31.890Z,37.85
2023-04-01T06:14:05.984Z,37.82
2023-04-01T06:16:57.128Z,37.76
2023-04-01T06:19:46.340Z,36.59
2023-04-01T06:22:28.338Z,36.91
2023-04-01T06:25:20.299Z,37.14
2023-04-01T06:27:51.032Z,37.39
2023-04-01T06:30:55.984Z,37.76
2023-04-01T06:33:58.933Z,38.35
2023-04-01T06:36:32.041Z,38.39
2023-04-01T06:39:03.618Z,38.72
2023-04-01T06:41:58.770Z,38.67
2023-04-01T06:44:44.594Z,38.76
2023-04-01T06:48:29.208Z,38.20
2023-04-01T06:51:31.731Z,38.38
2023-04-01T06:54:37.892Z,37.58
2023-04-01T06:57:33.450Z,37.07
2023-04-01T07:00:01.444Z,36.75
2023-04-01T07:02:39.866Z,36.58
2023-04-01T07:05:06.602Z,37.20
2023-04-01T07:07:48.939Z,36.93
2023-04-01T07:10:34.999Z,36.79
2023-04-01T07:13:39.661Z,37.10
2023-04-01T07:16:21.189Z,36.38
2023-04-01T07:19:10.793Z,35.57
2023-04-01T07:21:55.976Z,34.13
2023-04-01T07:24:37.903Z,33.90
2023-04-01T07:27:12.128Z,33.77
2023-04-01T07:29:40.978Z,33.20
2023-04-01T07:32:22.849Z,33.57
2023-04-01T07:35:25.837Z,33.88
2023-04-01T07:38:13.943Z,33.79
2023-04-01T07:41:00.864Z,32.98
2023-04-01T07:43:36.991Z,32.35
2023-04-01T07:46:41.191Z,32.81
2023-04-01T07:49:21.925Z,33.62
2023-04-01T07:52:07.246Z,33.11
2023-04-01T07:55:00.527Z,32.94
2023-04-01T07:57:33.749Z,33.52
2023-04-01T08:00:23.419Z,33.17
2023-04-01T08:03:08.736Z,32.56
2023-04-01T08:05:55.788Z,32.45
2023-04-01T08:08:37.047Z,32.36
2023-04-01T08:11:34.619Z,31.48
2023-04-01T08:14:39.897Z,31.63
2023-04-01T08:17:37.524Z,30.93
2023-04-01T08:20:32.788Z,30.78
2023-04-01T08:23:14.349Z,30.10
2023-04-01T08:26:00.458Z,30.26
2023-04-01T08:28:39.962Z,29.88
2023-04-01T08:31:19.758Z,30.24
2023-04-01T08:33:47.958Z,31.37
2023-04-01T08:36:14.677Z,30.58
2023-04-01T08:39:07.396Z,30.75
2023-04-01T08:41:37.292Z,30.89
2023-04-01T08:45:02.436Z,31.49
2023-04-01T08:47:49.510Z,31.59
2023-04-01T08:50:34.588Z,31.44
2023-04-01T08:53:53.918Z,32.16
2023-04-01T08:56:23.980Z,32.34
2023-04-01T08:59:13.321Z,32.23
2023-04-01T09:01:59.219Z,32.11
2023-04-01T09:05:24.944Z,31.52
2023-04-01T09:08:04.081Z,31.58
2023-04-01T09:10:44.954Z,31.81
2023-04-01T09:14:06.106Z,32.80
2023-04-01T09:17:05.877Z,32.51
2023-04-01T09:20:01.279Z,31.94
2023-04-01T09:22:41.593Z,31.36
2023-04-01T09:25:39.669Z,30.87
2023-04-01T09:28:09.396Z,30.38
2023-04-01T09:30:58.234Z,30.14
2023-04-01T09:34:06.926Z,29.88
2023-04-01T09:37:23.772Z,29.91
2023-04-01T09:40:12.907Z,30.01
2023-04-01T09:42:44.259Z,28.96
2023-04-01T09:45:47.951Z,28.78
2023-04-01T09:48:49.944Z,28.33
2023-04-01T09:51:31.416Z,28.53
2023-04-01T09:54:17.656Z,29.10
2023-04-01T09:57:13.691Z,29.28
2023-04-01T09:59:43.367Z,29.08
2023-04-01T10:02:53.679Z,28.98
2023-04-01T10:05:36.789Z,29.60
2023-04-01T10:08:22.263Z,29.57
2023-04-01T10:11:17.542Z,29.28
2023-04-01T10:14:15.204Z,29.33
2023-04-01T10:17:09.907Z,29.11
2023-04-01T10:20:02.958Z,28.53
2023-04-01T10:22:54.910Z,28.35
2023-04-01T10:25:45.814Z,27.70
2023-04-01T10:28:56.656Z,27.62
2023-04-01T10:32:18.083Z,26.49
2023-04-01T10:34:54.091Z,26.25
2023-04-01T10:37:51.089Z,26.10
2023-04-01T10:40:27.134Z,25.84
2023-04-01T10:43:27.472Z,26.12
2023-04-01T10:46:33.331Z,26.19
2023-04-01T10:49:23.861Z,26.24
2023-04-01T10:52:02.398Z,25.66
2023-04-01T10:55:19.961Z,24.92
2023-04-01T10:58:11.750Z,24.99
2023-04-01T11:01:42.439Z,25.32
2023-04-01T11:04:46.863Z,24.69
2023-04-01T11:08:05.329Z,24.54
2023-04-01T11:10:56.134Z,23.96
2023-04-01T11:13:29.820Z,24.43
2023-04-01T11:16:55.032Z,24.33
2023-04-01T11:19:46.984Z,24.80
2023-04-01T11:22:23.340Z,25.21
2023-04-01T11:24:55.686Z,25.98
2023-04-01T11:27:56.079Z,26.47
2023-04-01T11:30:29.842Z,26.49
2023-04-01T11:33:48.046Z,26.95
2023-04-01T11:36:15.087Z,26.28
2023-04-01T11:39:03.236Z,26.06
2023-04-01T11:42:15.058Z,26.43
2023-04-01T11:45:33.592Z,26.04
2023-04-01T11:48:26.491Z,26.31
2023-04-01T11:51:15.579Z,26.89
2023-04-01T11:54:17.303Z,27.10
2023-04-01T11:59:43.756Z,32.35
2023-04-01T12:03:03.414Z,29.08
2023-04-01T12:05:49.401Z,29.05
2023-04-01T12:08:42.493Z,28.41
2023-04-01T12:11:41.547Z,27.56
2023-04-01T12:14:23.644Z,27.74
2023-04-01T12:17:08.859Z,28.39
2023-04-01T12:19:44.768Z,27.93
2023-04-01T12:22:51.592Z,27.75
2023-04-01T12:25:23.562Z,28.09
2023-04-01T12:28:12.897Z,28.14
2023-04-01T12:31:19.627Z,28.46
2023-04-01T12:34:12.452Z,27.88
2023-04-01T12:36:59.056Z,27.99
2023-04-01T12:39:53.222Z,27.90
2023-04-01T12:42:37.126Z,27.00
2023-04-01T12:45:17.684Z,26.94
2023-04-01T12:47:51.889Z,27.33
2023-04-01T12:50:35.184Z,26.77
2023-04-01T12:53:13.271Z,27.57
2023-04-01T12:55:45.869Z,26.93
2023-04-01T12:58:29.855Z,26.73
2023-04-01T13:01:01.892Z,26.68
2023-04-01T13:03:36.807Z,26.33
2023-04-01T13:06:27.013Z,25.62
2023-04-01T13:09:17.899Z,25.65
2023-04-01T13:12:04.556Z,26.28
2023-04-01T13:14:57.552Z,25.74
2023-04-01T13:17:41.570Z,25.25
2023-04-01T13:20:41.664Z,24.41
2023-04-01T13:23:26.007Z,25.91
2023-04-01T13:26:14.750Z,25.76
2023-04-01T13:28:51.752Z,25.96
2023-04-01T13:31:27.112Z,25.51
2023-04-01T13:34:06.439Z,25.02
2023-04-01T13:36:42.740Z,24.65
2023-04-01T13:39:37.165Z,25.27
2023-04-01T13:42:16.309Z,26.29
2023-04-01T13:44:46.534Z,25.59
2023-04-01T13:47:37.071Z,25.50
2023-04-01T13:50:25.902Z,25.48
2023-04-01T13:53:31.703Z,26.22
2023-04-01T13:56:15.554Z,25.36
2023-04-01T13:59:04.957Z,26.04
2023-04-01T14:01:54.127Z,25.89
2023-04-01T14:04:50.571Z,25.62
2023-04-01T14:07:48.535Z,26.22
2023-04-01T14:10:40.565Z,27.13
2023-04-01T14:13:28.529Z,26.80
2023-04-01T14:16:23.396Z,26.56
2023-04-01T14:19:04.302Z,26.31
2023-04-01T14:21:52.308Z,25.78
2023-04-01T14:25:02.977Z,26.15
2023-04-01T14:27:39.730Z,25.84
2023-04-01T14:30:27.508Z,26.10
2023-04-01T14:33:02.266Z,27.12
2023-04-01T14:35:39.652Z,26.85
2023-04-01T14:38:32.145Z,26.92
2023-04-01T14:41:17.185Z,26.60
2023-04-01T14:43:56.711Z,26.59
2023-04-01T14:46:28.474Z,26.19
2023-04-01T14:49:15.440Z,26.61
2023-04-01T14:51:43.444Z,26.63
2023-04-01T14:54:23.570Z,26.26
2023-04-01T14:57:11.125Z,25.99
2023-04-01T14:59:49.798Z,25.76
2023-04-01T15:02:29.898Z,26.22
2023-04-01T15:05:10.163Z,26.40
2023-04-01T15:07:58.825Z,26.82
2023-04-01T15:10:35.948Z,27.17
2023-04-01T15:13:20.696Z,27.93
2023-04-01T15:16:12.115Z,28.57
2023-04-01T15:19:18.200Z,28.28
2023-04-01T15:22:01.380Z,28.59
2023-04-01T15:25:11.731Z,29.60
2023-04-01T15:27:45.967Z,29.67
2023-04-01T15:30:38.421Z,29.65
2023-04-01T15:33:42.112Z,29.60
2023-04-01T15:36:32.214Z,30.46
2023-04-01T15:39:06.902Z,29.42
2023-04-01T15:41:41.632Z,29.33
2023-04-01T15:44:31.576Z,29.41
2023-04-01T15:46:59.762Z,30.21
2023-04-01T15:49:27.705Z,31.02
2023-04-01T15:52:12.475Z,30.73
2023-04-01T15:55:02.748Z,30.73
2023-04-01T15:57:36.940Z,30.58
2023-04-01T16:00:30.923Z,30.59
2023-04-01T16:03:22.366Z,30.52
2023-04-01T16:06:12.186Z,30.54
2023-04-01T16:09:09.682Z,30.99
2023-04-01T16:11:59.177Z,30.81
2023-04-01T16:14:57.758Z,30.99
2023-04-01T16:17:29.866Z,31.00
2023-04-01T16:20:20.670Z,30.54
2023-04-01T16:22:58.076Z,31.23
2023-04-01T16:25:33.801Z,31.48
2023-04-01T16:28:15.299Z,30.89
2023-04-01T16:31:05.561Z,30.79
2023-04-01T16:33:51.092Z,30.85
2023-04-01T16:36:42.738Z,31.05
2023-04-01T16:39:27.836Z,31.13
2023-04-01T16:42:08.066Z,30.92
2023-04-01T16:44:50.970Z,31.86
2023-04-01T16:47:22.160Z,31.28
2023-04-01T16:49:56.580Z,31.88
2023-04-01T16:52:32.116Z,32.10
2023-04-01T16:55:20.996Z,31.90
2023-04-01T16:57:52.099Z,31.68
2023-04-01T17:00:28.292Z,32.06
2023-04-01T17:03:13.147Z,32.08
2023-04-01T17:06:10.374Z,32.74
2023-04-01T17:08:50.820Z,33.39
2023-04-01T17:11:23.890Z,33.24
2023-04-01T17:13:56.262Z,33.65
2023-04-01T17:16:46.984Z,33.56
2023-04-01T17:19:39.769Z,33.55
2023-04-01T17:22:25.566Z,33.30
2023-04-01T17:25:21.980Z,33.87
2023-04-01T17:28:08.625Z,33.62
2023-04-01T17:30:44.803Z,33.49
2023-04-01T17:33:37.538Z,33.91
2023-04-01T17:36:21.586Z,34.11
2023-04-01T17:39:15.045Z,33.48
2023-04-01T17:42:06.463Z,33.47
2023-04-01T17:44:43.857Z,34.62
2023-04-01T17:47:14.675Z,35.01
2023-04-01T17:49:58.016Z,35.62
2023-04-01T17:52:49.469Z,35.47
2023-04-01T17:55:29.289Z,35.34
2023-04-01T17:58:23.087Z,35.27
2023-04-01T18:01:25.573Z,35.57
2023-04-01T18:04:32.397Z,35.50
2023-04-01T18:07:06.926Z,35.44
2023-04-01T18:10:08.229Z,35.64
2023-04-01T18:12:45.068Z,35.92
2023-04-01T18:15:32.060Z,34.86
2023-04-01T18:18:19.099Z,35.37
2023-04-01T18:21:08.845Z,36.06
2023-04-01T18:23:59.096Z,35.86
2023-04-01T18:26:32.491Z,36.27
2023-04-01T18:29:05.487Z,35.73
2023-04-01T18:31:43.462Z,36.77
2023-04-01T18:34:48.853Z,37.40
2023-04-01T18:37:40.629Z,37.59
2023-04-01T18:40:16.903Z,37.73
2023-04-01T18:42:58.068Z,37.31
2023-04-01T18:45:29.526Z,38.19
2023-04-01T18:48:19.301Z,37.43
2023-04-01T18:50:54.763Z,37.54
2023-04-01T18:53:35.643Z,38.27
2023-04-01T18:56:04.718Z,38.07
2023-04-01T18:58:52.601Z,37.30
2023-04-01T19:01:23.813Z,37.13
2023-04-01T19:04:18.436Z,36.10
2023-04-01T19:06:52.815Z,36.23
2023-04-01T19:09:30.640Z,37.13
2023-04-01T19:12:24.677Z,36.58
2023-04-01T19:15:09.191Z,36.27
2023-04-01T19:18:00.121Z,36.04
2023-04-01T19:21:26.224Z,35.86
2023-04-01T19:24:18.437Z,35.33
2023-04-01T19:26:54.204Z,34.94
2023-04-01T19:29:28.023Z,34.59
2023-04-01T19:32:23.973Z,34.82
2023-04-01T19:34:58.253Z,34.84
2023-04-01T19:37:36.863Z,35.98
2023-04-01T19:40:20.501Z,36.82
2023-04-01T19:42:59.735Z,36.17
2023-04-01T19:45:48.993Z,36.70
2023-04-01T19:48:44.830Z,37.41
2023-04-01T19:51:21.996Z,36.19
2023-04-01T19:54:08.089Z,36.27
2023-04-01T19:57:14.700Z,36.16
2023-04-01T19:59:51.482Z,36.26
2023-04-01T20:02:44.577Z,35.97
2023-04-01T20:05:28.350Z,35.79
2023-04-01T20:08:09.450Z,36.89
2023-04-01T20:11:04.779Z,36.21
2023-04-01T20:13:42.950Z,36.23
2023-04-01T20:16:11.898Z,35.99
2023-04-01T20:19:01.353Z,35.95
2023-04-01T20:21:48.454Z,35.57
2023-04-01T20:24:43.378Z,36.08
2023-04-01T20:27:37.516Z,36.21
2023-04-01T20:30:45.839Z,35.90
2023-04-01T20:33:34.936Z,36.07
2023-04-01T20:36:30.595Z,36.41
2023-04-01T20:39:18.022Z,35.67
2023-04-01T20:42:22.979Z,35.35
2023-04-01T20:45:27.027Z,35.54
2023-04-01T20:47:57.836Z,35.05
2023-04-01T20:50:28.653Z,34.89
2023-04-01T20:52:56.897Z,34.36
2023-04-01T20:55:59.037Z,34.32
2023-04-01T20:58:44.680Z,34.46
2023-04-01T21:01:31.527Z,34.87
2023-04-01T21:04:05.677Z,34.75
2023-04-01T21:06:53.730Z,34.22
2023-04-01T21:09:28.511Z,34.38
2023-04-01T21:12:24.837Z,34.35
2023-04-01T21:15:12.055Z,34.62
2023-04-01T21:18:03.843Z,34.80
2023-04-01T21:20:45.136Z,34.31
2023-04-01T21:24:01.162Z,34.10
2023-04-01T21:26:58.185Z,34.25
2023-04-01T21:29:41.710Z,34.42
2023-04-01T21:32:29.076Z,34.34
2023-04-01T21:35:16.633Z,34.42
2023-04-01T21:38:01.964Z,34.55
2023-04-01T21:41:09.431Z,34.73
2023-04-01T21:44:07.125Z,34.87
2023-04-01T21:47:10.000Z,34.96
2023-04-01T21:50:05.261Z,34.90
2023-04-01T21:52:42.793Z,34.43
2023-04-01T21:55:28.116Z,34.67
2023-04-01T21:58:20.614Z,34.77
2023-04-01T22:00:57.843Z,35.24
2023-04-01T22:03:47.568Z,34.91
2023-04-01T22:06:23.824Z,34.66
2023-04-01T22:09:13.110Z,34.27
2023-04-01T22:12:03.067Z,34.17
2023-04-01T22:14:43.249Z,34.42
2023-04-01T22:17:44.258Z,34.23
2023-04-01T22:20:46.152Z,34.35
2023-04-01T22:23:22.800Z,34.87
2023-04-01T22:26:11.895Z,34.67
2023-04-01T22:28:55.289Z,34.99
2023-04-01T22:31:34.704Z,34.75
2023-04-01T22:34:18.500Z,34.99
2023-04-01T22:36:49.330Z,34.43
2023-04-01T22:39:29.921Z,34.12
2023-04-01T22:42:17.471Z,34.11
2023-04-01T22:45:07.330Z,34.23
2023-04-01T22:48:04.957Z,34.23
2023-04-01T22:50:41.992Z,34.39
2023-04-01T22:53:24.650Z,34.63
2023-04-01T22:55:54.024Z,34.63
2023-04-01T22:58:28.292Z,34.66
2023-04-01T23:00:58.414Z,35.30
2023-04-01T23:03:32.003Z,35.16
2023-04-01T23:06:01.730Z,35.49
2023-04-01T23:09:01.936Z,35.48
2023-04-01T23:11:43.705Z,35.27
2023-04-01T23:14:11.772Z,35.63
2023-04-01T23:16:42.221Z,35.53
2023-04-01T23:19:55.661Z,35.20
2023-04-01T23:22:28.568Z,35.47
2023-04-01T23:25:01.839Z,35.39
2023-04-01T23:27:53.107Z,35.30
2023-04-01T23:30:41.416Z,35.74
2023-04-01T23:33:29.936Z,35.55
2023-04-01T23:36:08.789Z,35.37
2023-04-01T23:38:43.274Z,35.36
2023-04-01T23:41:29.219Z,34.83
2023-04-01T23:44:06.465Z,34.78
2023-04-01T23:46:36.632Z,34.88
2023-04-01T23:49:05.832Z,35.57
2023-04-01T23:51:39.792Z,35.30
2023-04-01T23:54:18.037Z,35.15
2023-04-01T23:56:54.890Z,35.43
2023-04-01T23:59:28.418Z,35.14
